Time;durP1;ratioP1;P1;durP2;ratioP2;P2;SDS_P1;SDS_P2;PMS_P1;PMS_P2;Temp;Humidity;BMP_temperature;BMP_pressure;BME280_temperature;BME280_humidity;BME280_pressure;Samples;Min_cycle;Max_cycle;Signal;HPM_P1;HPM_P2
2021/10/07 00:00:22;;;;;;;2.67;1.00;;;8.30;99.90;;;;;;5119698;28;20189;-83
2021/10/07 00:02:48;;;;;;;4.00;2.37;;;8.30;99.90;;;;;;5121101;28;20228;-82
2021/10/07 00:05:13;;;;;;;1.40;1.00;;;8.30;99.90;;;;;;5128045;28;20179;-82
2021/10/07 00:07:40;;;;;;;2.13;1.00;;;8.30;99.90;;;;;;5126837;28;20182;-82
2021/10/07 00:10:06;;;;;;;2.80;1.10;;;8.30;99.90;;;;;;5124540;28;20208;-82
2021/10/07 00:12:32;;;;;;;1.63;1.03;;;8.40;99.90;;;;;;5117297;28;20271;-83
2021/10/07 00:14:58;;;;;;;2.50;1.27;;;8.40;99.90;;;;;;5117402;28;20199;-82
2021/10/07 00:17:23;;;;;;;2.83;1.00;;;8.40;99.90;;;;;;5117930;28;20179;-83
2021/10/07 00:19:49;;;;;;;2.63;1.00;;;8.40;99.90;;;;;;5118165;28;20195;-82
2021/10/07 00:22:15;;;;;;;1.97;1.10;;;8.40;99.90;;;;;;5119484;28;20175;-83
2021/10/07 00:24:40;;;;;;;3.23;1.40;;;8.30;99.90;;;;;;5117539;28;20304;-83
2021/10/07 00:27:07;;;;;;;3.13;1.60;;;8.30;99.90;;;;;;5118750;28;20217;-82
2021/10/07 00:29:46;;;;;;;2.63;1.33;;;8.30;99.90;;;;;;5117796;28;20557;-83
2021/10/07 00:32:16;;;;;;;4.03;1.50;;;8.30;99.90;;;;;;5117571;28;20233;-82
2021/10/07 00:40:15;;;;;;;2.20;1.17;;;8.20;99.90;;;;;;5081965;28;20226;-82
2021/10/07 00:42:41;;;;;;;1.83;1.63;;;8.10;99.90;;;;;;5118866;28;20192;-83
2021/10/07 00:45:07;;;;;;;3.70;1.73;;;8.10;99.90;;;;;;5120387;28;20172;-83
2021/10/07 00:47:33;;;;;;;1.60;1.33;;;8.10;99.90;;;;;;5124147;28;20172;-83
2021/10/07 00:49:59;;;;;;;1.63;1.43;;;8.10;99.90;;;;;;5125157;28;20178;-83
2021/10/07 00:52:24;;;;;;;2.20;1.43;;;8.10;99.90;;;;;;5125900;28;20177;-82
2021/10/07 00:54:54;;;;;;;2.27;1.10;;;8.10;99.90;;;;;;5122326;28;20176;-82
2021/10/07 00:57:22;;;;;;;1.33;1.20;;;8.10;99.90;;;;;;5120954;28;20225;-82
2021/10/07 00:59:49;;;;;;;1.87;1.70;;;8.00;99.90;;;;;;5120760;28;20260;-83
2021/10/07 01:02:16;;;;;;;3.57;1.40;;;8.00;99.90;;;;;;5122175;28;20427;-82
2021/10/07 01:04:42;;;;;;;3.97;1.50;;;8.00;99.90;;;;;;5122618;27;20233;-83
2021/10/07 01:07:09;;;;;;;2.60;1.67;;;8.00;99.90;;;;;;5121429;28;20515;-83
2021/10/07 01:09:36;;;;;;;2.77;1.70;;;8.00;99.90;;;;;;5122070;28;20545;-82
2021/10/07 01:12:03;;;;;;;2.90;1.50;;;8.00;99.90;;;;;;5122662;28;20587;-82
2021/10/07 01:14:58;;;;;;;1.83;1.27;;;8.10;99.90;;;;;;5120590;28;20191;-82
2021/10/07 01:17:26;;;;;;;1.60;1.43;;;8.10;99.90;;;;;;5121255;28;20176;-82
2021/10/07 01:19:53;;;;;;;2.37;1.60;;;8.10;99.90;;;;;;5120744;28;20282;-82
2021/10/07 01:22:21;;;;;;;6.30;1.70;;;8.10;99.90;;;;;;5120871;28;20470;-82
2021/10/07 01:24:47;;;;;;;2.50;1.77;;;8.10;99.90;;;;;;5122068;28;20192;-83
2021/10/07 01:27:13;;;;;;;3.87;1.90;;;8.10;99.90;;;;;;5121179;28;20235;-83
2021/10/07 01:29:40;;;;;;;2.00;1.80;;;8.10;99.90;;;;;;5121125;28;20231;-83
2021/10/07 01:32:07;;;;;;;3.23;2.00;;;8.10;99.90;;;;;;5121295;28;20252;-82
2021/10/07 01:34:33;;;;;;;2.20;1.53;;;8.00;99.90;;;;;;5122699;27;20409;-82
2021/10/07 01:37:00;;;;;;;2.10;1.90;;;8.00;99.90;;;;;;5120894;28;20194;-83
2021/10/07 01:39:26;;;;;;;5.43;1.70;;;8.00;99.90;;;;;;5120808;28;20223;-82
2021/10/07 01:41:52;;;;;;;4.67;1.70;;;8.00;99.90;;;;;;5122564;28;20638;-82
2021/10/07 01:44:19;;;;;;;3.03;1.83;;;8.00;99.90;;;;;;5121466;28;20221;-82
2021/10/07 01:46:45;;;;;;;1.87;1.63;;;8.00;99.90;;;;;;5121960;28;20168;-83
2021/10/07 01:49:11;;;;;;;5.50;1.90;;;8.00;99.90;;;;;;5121240;28;20202;-83
2021/10/07 01:51:37;;;;;;;2.07;1.90;;;8.10;99.90;;;;;;5123789;28;20663;-83
2021/10/07 01:54:04;;;;;;;2.47;1.90;;;8.10;99.90;;;;;;5124312;28;20249;-82
2021/10/07 01:56:31;;;;;;;2.63;2.00;;;8.00;99.90;;;;;;5119862;28;20172;-82
2021/10/07 01:58:57;;;;;;;2.90;1.90;;;8.00;99.90;;;;;;5119733;28;20563;-83
2021/10/07 02:01:23;;;;;;;2.90;1.93;;;7.90;99.90;;;;;;5120343;28;20167;-82
2021/10/07 02:03:48;;;;;;;3.23;1.77;;;7.90;99.90;;;;;;5120068;28;20665;-82
2021/10/07 02:06:14;;;;;;;3.57;2.07;;;7.90;99.90;;;;;;5118852;28;20171;-83
2021/10/07 02:08:41;;;;;;;1.67;1.50;;;7.90;99.90;;;;;;5118748;28;20242;-83
2021/10/07 02:11:06;;;;;;;3.03;1.70;;;7.90;99.90;;;;;;5119805;28;20172;-82
2021/10/07 02:13:32;;;;;;;1.67;1.57;;;7.90;99.90;;;;;;5118400;28;20305;-82
2021/10/07 02:15:58;;;;;;;1.87;1.63;;;8.00;99.90;;;;;;5117630;28;20305;-82
2021/10/07 02:18:24;;;;;;;1.87;1.50;;;8.00;99.90;;;;;;5116028;28;20203;-82
2021/10/07 02:20:50;;;;;;;1.97;1.47;;;8.00;99.90;;;;;;5118254;28;20223;-82
2021/10/07 02:23:16;;;;;;;3.20;1.73;;;8.00;99.90;;;;;;5120427;28;20199;-83
2021/10/07 02:25:41;;;;;;;2.70;1.70;;;8.00;99.90;;;;;;5119927;28;20206;-83
2021/10/07 02:28:07;;;;;;;1.90;1.63;;;8.10;99.90;;;;;;5121400;28;20198;-83
2021/10/07 02:30:33;;;;;;;2.67;1.63;;;8.10;99.90;;;;;;5119769;28;20199;-83
2021/10/07 02:32:58;;;;;;;2.00;1.57;;;8.10;99.90;;;;;;5120050;28;20188;-83
2021/10/07 02:35:24;;;;;;;2.43;1.77;;;8.10;99.90;;;;;;5119095;28;20178;-82
2021/10/07 02:37:50;;;;;;;2.33;2.00;;;8.10;99.90;;;;;;5119376;28;20202;-83
2021/10/07 02:40:16;;;;;;;2.80;1.63;;;8.10;99.90;;;;;;5120034;28;20180;-83
2021/10/07 02:42:42;;;;;;;2.20;1.67;;;8.10;99.90;;;;;;5119315;28;20625;-82
2021/10/07 02:45:10;;;;;;;3.30;1.60;;;8.10;99.90;;;;;;5119545;28;20186;-82
2021/10/07 02:47:36;;;;;;;2.70;1.90;;;8.10;99.90;;;;;;5120344;28;20176;-82
2021/10/07 02:50:04;;;;;;;5.63;2.00;;;8.10;99.90;;;;;;5120601;28;20228;-82
2021/10/07 02:52:30;;;;;;;2.07;1.70;;;8.10;99.90;;;;;;5119588;28;20270;-82
2021/10/07 02:54:55;;;;;;;1.93;1.60;;;8.00;99.90;;;;;;5119999;28;20277;-82
2021/10/07 02:57:21;;;;;;;4.33;2.10;;;8.00;99.90;;;;;;5120045;28;20548;-82
2021/10/07 02:59:47;;;;;;;2.13;1.93;;;8.00;99.90;;;;;;5120202;28;20199;-82
2021/10/07 03:02:12;;;;;;;2.27;1.60;;;8.00;99.90;;;;;;5121076;28;20173;-82
2021/10/07 03:04:38;;;;;;;2.20;1.70;;;8.00;99.90;;;;;;5121277;27;20190;-82
2021/10/07 03:07:04;;;;;;;3.53;1.60;;;7.90;99.90;;;;;;5120658;28;20171;-82
2021/10/07 03:09:30;;;;;;;2.10;1.90;;;8.00;99.90;;;;;;5121101;28;20218;-82
2021/10/07 03:11:55;;;;;;;4.07;1.90;;;7.90;99.90;;;;;;5122202;28;20176;-82
2021/10/07 03:14:21;;;;;;;2.00;1.50;;;7.90;99.90;;;;;;5122753;28;20179;-82
2021/10/07 03:16:46;;;;;;;3.50;1.90;;;8.00;99.90;;;;;;5123442;28;20175;-82
2021/10/07 03:19:12;;;;;;;2.80;1.80;;;8.00;99.90;;;;;;5119321;28;20340;-82
2021/10/07 03:21:38;;;;;;;2.17;1.70;;;8.00;99.90;;;;;;5119559;28;20205;-82
2021/10/07 03:24:04;;;;;;;4.33;1.73;;;8.00;99.90;;;;;;5119402;28;20296;-82
2021/10/07 03:26:30;;;;;;;2.77;2.00;;;7.90;99.90;;;;;;5119001;28;20629;-82
2021/10/07 03:28:56;;;;;;;2.37;2.03;;;7.90;99.90;;;;;;5119769;28;20252;-83
2021/10/07 03:31:21;;;;;;;2.67;2.10;;;7.90;99.90;;;;;;5120916;28;20177;-82
2021/10/07 03:33:47;;;;;;;2.33;1.57;;;7.90;99.90;;;;;;5120130;28;20199;-82
2021/10/07 03:36:13;;;;;;;2.50;1.90;;;7.90;99.90;;;;;;5120298;28;20180;-82
2021/10/07 03:38:38;;;;;;;2.40;1.83;;;7.90;99.90;;;;;;5120810;28;20571;-82
2021/10/07 03:41:04;;;;;;;3.03;2.20;;;7.90;99.90;;;;;;5119569;28;20629;-82
2021/10/07 03:43:30;;;;;;;3.50;2.40;;;7.90;99.90;;;;;;5119873;28;20210;-82
2021/10/07 03:45:56;;;;;;;2.20;2.00;;;7.90;99.90;;;;;;5121092;28;20171;-82
2021/10/07 03:48:21;;;;;;;2.33;2.13;;;7.90;99.90;;;;;;5120582;28;20199;-82
2021/10/07 03:50:47;;;;;;;6.30;2.10;;;7.90;99.90;;;;;;5119816;28;20186;-83
2021/10/07 03:53:13;;;;;;;2.97;2.07;;;7.90;99.90;;;;;;5119485;28;20279;-82
2021/10/07 03:55:39;;;;;;;3.63;2.43;;;7.90;99.90;;;;;;5120416;28;20592;-83
2021/10/07 03:58:05;;;;;;;3.40;1.60;;;7.90;99.90;;;;;;5121883;28;20203;-82
2021/10/07 04:00:30;;;;;;;3.70;1.97;;;7.90;99.90;;;;;;5120016;28;20599;-83
2021/10/07 04:02:57;;;;;;;3.30;2.00;;;7.90;99.90;;;;;;5119237;28;20195;-82
2021/10/07 04:05:24;;;;;;;3.03;1.80;;;7.90;99.90;;;;;;5119673;28;20187;-83
2021/10/07 04:07:49;;;;;;;2.90;2.00;;;7.90;99.90;;;;;;5119976;28;20199;-82
2021/10/07 04:10:15;;;;;;;2.20;1.63;;;7.90;99.90;;;;;;5120310;28;20180;-82
2021/10/07 04:12:41;;;;;;;2.70;1.80;;;7.90;99.90;;;;;;5120598;28;20203;-83
2021/10/07 04:15:07;;;;;;;4.17;2.00;;;7.90;99.90;;;;;;5120982;28;20175;-82
2021/10/07 04:17:33;;;;;;;4.97;2.40;;;7.90;99.90;;;;;;5121236;28;20337;-83
2021/10/07 04:19:58;;;;;;;3.90;2.20;;;7.90;99.90;;;;;;5123123;28;20246;-83
2021/10/07 04:22:24;;;;;;;4.57;2.00;;;7.80;99.90;;;;;;5127583;28;20175;-82
2021/10/07 04:24:50;;;;;;;6.27;2.57;;;7.80;99.90;;;;;;5128906;28;20239;-82
2021/10/07 04:27:15;;;;;;;3.03;2.30;;;7.90;99.90;;;;;;5123196;28;20219;-82
2021/10/07 04:29:44;;;;;;;3.90;2.10;;;7.90;99.90;;;;;;5122832;28;20630;-83
2021/10/07 04:32:10;;;;;;;3.00;2.00;;;7.90;99.90;;;;;;5124384;27;20206;-82
2021/10/07 04:34:35;;;;;;;4.80;2.40;;;7.90;99.90;;;;;;5124405;28;20587;-83
2021/10/07 04:37:01;;;;;;;4.47;2.30;;;7.90;99.90;;;;;;5120594;28;20186;-82
2021/10/07 04:39:27;;;;;;;3.80;1.97;;;7.90;99.90;;;;;;5121067;28;20205;-82
2021/10/07 04:41:54;;;;;;;4.87;2.53;;;8.00;99.90;;;;;;5120089;28;20276;-82
2021/10/07 04:44:20;;;;;;;3.80;2.40;;;7.90;99.90;;;;;;5119579;28;20253;-82
2021/10/07 04:46:46;;;;;;;3.33;2.40;;;7.90;99.90;;;;;;5119955;28;20413;-82
2021/10/07 04:49:11;;;;;;;4.53;2.20;;;7.80;99.90;;;;;;5120932;28;20187;-83
2021/10/07 04:51:38;;;;;;;3.37;2.20;;;7.80;99.90;;;;;;5120270;28;20198;-82
2021/10/07 04:54:04;;;;;;;2.57;2.20;;;7.80;99.90;;;;;;5119781;28;20176;-83
2021/10/07 04:56:30;;;;;;;2.53;2.30;;;7.80;99.90;;;;;;5121330;28;20183;-83
2021/10/07 04:58:56;;;;;;;3.20;2.47;;;7.80;99.90;;;;;;5123062;28;20202;-83
2021/10/07 05:01:22;;;;;;;3.30;2.23;;;7.70;99.90;;;;;;5121569;28;20171;-84
2021/10/07 05:03:48;;;;;;;3.97;2.30;;;7.70;99.90;;;;;;5121559;28;20466;-82
2021/10/07 05:06:14;;;;;;;2.73;2.47;;;7.70;99.90;;;;;;5121804;28;20250;-83
2021/10/07 05:08:40;;;;;;;3.00;2.17;;;;;;;;;;5122330;28;20219;-83
2021/10/07 05:11:05;;;;;;;4.03;2.33;;;7.70;99.90;;;;;;5121083;28;20182;-83
2021/10/07 05:13:32;;;;;;;4.87;2.00;;;7.80;99.90;;;;;;5120648;28;20211;-83
2021/10/07 05:15:58;;;;;;;4.90;2.50;;;7.70;99.90;;;;;;5121528;28;20259;-83
2021/10/07 05:18:24;;;;;;;4.27;2.63;;;;;;;;;;5119506;28;20210;-83
2021/10/07 05:20:51;;;;;;;3.40;2.47;;;7.80;99.90;;;;;;5121390;28;20421;-83
2021/10/07 05:23:17;;;;;;;3.50;2.23;;;7.80;99.90;;;;;;5120876;28;20214;-82
2021/10/07 05:25:43;;;;;;;4.40;2.20;;;7.80;99.90;;;;;;5122119;27;20179;-82
2021/10/07 05:28:09;;;;;;;4.33;2.50;;;7.90;99.90;;;;;;5121603;28;20736;-82
2021/10/07 05:30:35;;;;;;;2.30;2.10;;;;;;;;;;5120064;28;20220;-82
2021/10/07 05:33:01;;;;;;;3.17;2.33;;;7.80;99.90;;;;;;5116850;28;20455;-83
2021/10/07 05:35:27;;;;;;;3.37;2.67;;;7.90;99.90;;;;;;5117985;28;20171;-83
2021/10/07 05:37:53;;;;;;;4.33;2.63;;;;;;;;;;5125446;28;20192;-83
2021/10/07 05:40:19;;;;;;;2.50;2.30;;;7.90;99.90;;;;;;5127244;28;20175;-83
2021/10/07 05:42:44;;;;;;;3.50;2.40;;;8.00;99.90;;;;;;5127105;28;20184;-82
2021/10/07 05:45:11;;;;;;;4.23;2.67;;;;;;;;;;5126071;28;20178;-82
2021/10/07 05:47:40;;;;;;;2.70;2.00;;;7.90;99.90;;;;;;5125713;28;20199;-82
2021/10/07 05:50:08;;;;;;;4.60;3.60;;;7.90;99.90;;;;;;5125845;27;20175;-82
2021/10/07 05:52:34;;;;;;;4.83;2.90;;;8.00;99.90;;;;;;5125519;28;20183;-83
2021/10/07 05:55:00;;;;;;;2.90;2.40;;;;;;;;;;5124074;28;20708;-83
2021/10/07 05:57:25;;;;;;;2.53;2.20;;;8.10;99.90;;;;;;5126601;28;20171;-83
2021/10/07 05:59:52;;;;;;;4.00;2.07;;;8.00;99.90;;;;;;5127331;28;20195;-82
2021/10/07 06:02:18;;;;;;;2.80;2.30;;;8.00;99.90;;;;;;5124676;28;20256;-83
2021/10/07 06:04:44;;;;;;;5.87;3.17;;;8.10;99.90;;;;;;5125989;27;20204;-83
2021/10/07 06:07:10;;;;;;;4.83;2.97;;;8.10;99.90;;;;;;5125230;28;20185;-83
2021/10/07 06:09:35;;;;;;;5.03;3.57;;;8.10;99.90;;;;;;5126091;28;20197;-83
2021/10/07 06:12:01;;;;;;;5.27;4.10;;;8.10;99.90;;;;;;5124726;28;20183;-83
2021/10/07 06:14:27;;;;;;;5.97;3.97;;;;;;;;;;5125838;28;20183;-83
2021/10/07 06:16:53;;;;;;;2.17;2.03;;;8.10;99.90;;;;;;5125005;28;20175;-83
2021/10/07 06:19:25;;;;;;;5.90;2.10;;;8.10;99.90;;;;;;5123427;28;20207;-83
2021/10/07 06:21:51;;;;;;;3.00;2.03;;;8.20;99.90;;;;;;5121952;28;20175;-83
2021/10/07 06:24:18;;;;;;;3.27;1.97;;;8.20;99.90;;;;;;5124117;28;20453;-82
2021/10/07 06:26:44;;;;;;;6.03;3.03;;;8.20;99.90;;;;;;5122286;28;20918;-83
2021/10/07 06:29:11;;;;;;;3.23;2.30;;;8.30;99.90;;;;;;5121645;28;20490;-82
2021/10/07 06:31:37;;;;;;;3.57;2.43;;;8.30;99.90;;;;;;5122092;28;20409;-83
2021/10/07 06:34:03;;;;;;;3.87;2.20;;;8.30;99.90;;;;;;5121540;28;20425;-82
2021/10/07 06:36:29;;;;;;;2.33;2.03;;;8.40;99.90;;;;;;5123751;28;20430;-82
2021/10/07 06:38:55;;;;;;;4.60;2.30;;;8.40;99.90;;;;;;5121690;28;20428;-82
2021/10/07 06:41:22;;;;;;;2.80;2.50;;;8.40;99.90;;;;;;5121889;28;20179;-83
2021/10/07 06:43:48;;;;;;;2.30;2.10;;;8.50;99.90;;;;;;5120531;28;20262;-82
2021/10/07 06:46:14;;;;;;;5.97;2.70;;;8.50;99.90;;;;;;5123628;28;20172;-83
2021/10/07 06:48:40;;;;;;;3.03;2.33;;;8.50;99.90;;;;;;5121942;28;20656;-82
2021/10/07 06:51:09;;;;;;;4.43;2.50;;;8.40;99.90;;;;;;5123855;28;20213;-82
2021/10/07 06:53:36;;;;;;;4.33;2.87;;;8.40;99.90;;;;;;5122407;28;20223;-82
2021/10/07 06:56:03;;;;;;;8.07;4.27;;;8.40;99.90;;;;;;5123907;28;20170;-83
2021/10/07 06:58:29;;;;;;;7.60;5.67;;;8.50;99.90;;;;;;5123614;28;20229;-83
2021/10/07 07:00:55;;;;;;;4.87;4.37;;;8.50;99.90;;;;;;5122415;28;20420;-82
2021/10/07 07:03:20;;;;;;;3.23;2.93;;;8.40;99.90;;;;;;5122296;28;20277;-83
2021/10/07 07:05:46;;;;;;;2.30;2.10;;;8.50;99.90;;;;;;5123662;28;20183;-83
2021/10/07 07:08:11;;;;;;;2.23;2.00;;;8.50;99.90;;;;;;5123010;28;20202;-84
2021/10/07 07:10:37;;;;;;;4.07;3.33;;;8.50;99.90;;;;;;5123246;28;20530;-82
2021/10/07 07:13:05;;;;;;;3.83;3.03;;;8.60;99.90;;;;;;5123060;28;20235;-82
2021/10/07 07:15:31;;;;;;;5.47;2.80;;;8.60;99.90;;;;;;5122062;28;20592;-83
2021/10/07 07:17:57;;;;;;;5.50;2.67;;;8.70;99.90;;;;;;5120897;28;20203;-83
2021/10/07 07:20:23;;;;;;;4.27;3.07;;;8.70;99.90;;;;;;5121578;28;20187;-83
2021/10/07 07:22:49;;;;;;;3.20;2.90;;;8.70;99.90;;;;;;5121340;28;20180;-83
2021/10/07 07:25:15;;;;;;;3.40;2.23;;;8.70;99.90;;;;;;5122434;28;20185;-83
2021/10/07 07:27:41;;;;;;;2.97;2.40;;;8.90;99.90;;;;;;5121466;28;20184;-83
2021/10/07 07:30:07;;;;;;;2.87;2.20;;;8.90;99.90;;;;;;5120843;28;20533;-83
2021/10/07 07:32:33;;;;;;;4.10;3.30;;;8.90;99.90;;;;;;5122803;28;20645;-82
2021/10/07 07:34:59;;;;;;;4.50;2.83;;;8.90;99.90;;;;;;5121097;28;20671;-83
2021/10/07 07:37:25;;;;;;;4.43;2.50;;;8.90;99.90;;;;;;5121446;28;20656;-83
2021/10/07 07:39:50;;;;;;;3.00;2.30;;;8.90;99.90;;;;;;5121648;28;20199;-83
2021/10/07 07:42:16;;;;;;;2.40;2.20;;;9.00;99.90;;;;;;5121843;28;20186;-83
2021/10/07 07:44:42;;;;;;;3.80;2.30;;;9.10;99.90;;;;;;5122623;28;20586;-83
2021/10/07 07:47:08;;;;;;;2.77;1.90;;;9.10;99.90;;;;;;5124383;28;20173;-83
2021/10/07 07:49:34;;;;;;;3.17;2.80;;;9.10;99.90;;;;;;5124117;28;20188;-83
2021/10/07 07:52:00;;;;;;;5.47;3.40;;;9.10;99.90;;;;;;5123098;28;20187;-82
2021/10/07 07:54:27;;;;;;;2.40;2.20;;;9.20;99.90;;;;;;5123586;28;20211;-82
2021/10/07 07:56:52;;;;;;;3.83;2.67;;;9.30;99.90;;;;;;5123625;28;20190;-83
2021/10/07 07:59:18;;;;;;;4.77;2.60;;;9.30;99.90;;;;;;5123967;28;20198;-82
2021/10/07 08:01:44;;;;;;;3.83;2.43;;;9.40;99.90;;;;;;5127646;28;20180;-82
2021/10/07 08:04:09;;;;;;;3.27;2.60;;;9.40;99.90;;;;;;5124929;28;20222;-82
2021/10/07 08:06:37;;;;;;;4.27;2.13;;;9.40;99.90;;;;;;5127268;28;20200;-82
2021/10/07 08:09:04;;;;;;;3.43;2.50;;;9.20;99.90;;;;;;5125122;28;20191;-83
2021/10/07 08:11:30;;;;;;;5.90;2.43;;;9.30;99.90;;;;;;5122086;28;20561;-83
2021/10/07 08:13:58;;;;;;;2.63;2.43;;;9.30;99.90;;;;;;5122289;28;20175;-83
2021/10/07 08:16:26;;;;;;;2.97;2.07;;;9.30;99.90;;;;;;5115332;28;20183;-82
2021/10/07 08:18:52;;;;;;;3.27;2.20;;;9.40;99.90;;;;;;5115517;28;20200;-82
2021/10/07 08:21:18;;;;;;;3.53;2.23;;;9.40;99.90;;;;;;5122858;28;20197;-83
2021/10/07 08:23:44;;;;;;;2.10;1.90;;;9.50;99.90;;;;;;5122765;28;20203;-82
2021/10/07 08:26:11;;;;;;;3.67;2.37;;;9.50;99.90;;;;;;5123095;28;20519;-83
2021/10/07 08:28:37;;;;;;;4.47;2.30;;;9.50;99.90;;;;;;5123192;28;20665;-83
2021/10/07 08:31:03;;;;;;;2.40;2.20;;;9.40;99.90;;;;;;5122708;28;20214;-84
2021/10/07 08:33:28;;;;;;;3.70;2.23;;;9.40;99.90;;;;;;5123221;28;20178;-83
2021/10/07 08:35:54;;;;;;;3.43;2.30;;;9.40;99.90;;;;;;5129550;28;20627;-82
2021/10/07 08:38:20;;;;;;;3.40;2.07;;;9.40;99.90;;;;;;5132424;28;20225;-82
2021/10/07 08:40:45;;;;;;;3.27;2.10;;;9.40;99.90;;;;;;5130359;28;20186;-82
2021/10/07 08:43:11;;;;;;;3.23;2.50;;;9.50;99.90;;;;;;5122341;28;20227;-83
2021/10/07 08:45:37;;;;;;;5.67;3.20;;;9.50;99.90;;;;;;5114887;28;20172;-83
2021/10/07 08:48:03;;;;;;;3.03;2.30;;;9.50;99.90;;;;;;5113590;28;20191;-82
2021/10/07 08:50:29;;;;;;;3.07;2.60;;;9.50;99.90;;;;;;5115538;28;20171;-83
2021/10/07 08:52:54;;;;;;;2.90;2.30;;;9.60;99.90;;;;;;5116777;28;20224;-83
2021/10/07 08:55:20;;;;;;;3.33;2.50;;;9.90;99.90;;;;;;5119707;28;20258;-83
2021/10/07 08:57:46;;;;;;;3.30;2.40;;;10.10;99.90;;;;;;5120327;28;20176;-82
2021/10/07 09:00:14;;;;;;;3.57;2.00;;;10.20;99.90;;;;;;5121478;28;20176;-83
2021/10/07 09:02:41;;;;;;;4.13;2.13;;;10.30;99.90;;;;;;5121158;28;20189;-83
2021/10/07 09:05:12;;;;;;;3.77;2.70;;;10.40;99.90;;;;;;5120422;28;20191;-83
2021/10/07 09:07:58;;;;;;;3.87;2.20;;;10.40;99.90;;;;;;5120939;28;20176;-83
2021/10/07 09:10:46;;;;;;;5.57;2.10;;;10.40;99.90;;;;;;5107867;28;20184;-83
2021/10/07 09:13:23;;;;;;;2.43;1.80;;;10.40;99.90;;;;;;5123161;28;20240;-83
2021/10/07 09:15:56;;;;;;;2.43;2.00;;;10.40;99.90;;;;;;5123688;28;20307;-83
2021/10/07 09:18:24;;;;;;;2.57;2.03;;;10.50;99.90;;;;;;5123946;28;20214;-83
2021/10/07 09:20:51;;;;;;;2.00;1.80;;;10.60;99.90;;;;;;5124350;28;20425;-82
2021/10/07 09:23:20;;;;;;;2.93;2.20;;;10.70;99.90;;;;;;5124543;28;20199;-83
2021/10/07 09:25:53;;;;;;;2.77;1.70;;;10.70;99.90;;;;;;5125542;28;20164;-83
2021/10/07 09:28:19;;;;;;;4.47;2.10;;;10.60;99.90;;;;;;5123833;28;20564;-83
2021/10/07 09:30:44;;;;;;;2.57;1.90;;;10.60;99.90;;;;;;5124005;28;20258;-83
2021/10/07 09:33:10;;;;;;;2.60;1.97;;;10.70;99.90;;;;;;5125273;28;20170;-83
2021/10/07 09:35:37;;;;;;;2.47;2.10;;;10.70;99.90;;;;;;5123924;28;20178;-82
2021/10/07 09:38:05;;;;;;;3.23;1.87;;;10.70;99.90;;;;;;5124914;28;20183;-83
2021/10/07 09:40:31;;;;;;;2.37;2.03;;;10.60;99.90;;;;;;5125323;28;20663;-83
2021/10/07 09:43:03;;;;;;;2.80;2.10;;;10.50;99.90;;;;;;5123627;28;20254;-83
2021/10/07 09:45:33;;;;;;;2.20;2.00;;;10.50;99.90;;;;;;5125288;28;20176;-83
2021/10/07 09:48:02;;;;;;;3.70;2.00;;;10.50;99.90;;;;;;5125268;28;20267;-83
2021/10/07 09:50:35;;;;;;;3.63;3.20;;;10.40;99.90;;;;;;5124592;28;20175;-83
2021/10/07 09:53:03;;;;;;;2.63;2.40;;;10.40;99.90;;;;;;5123148;28;20167;-83
2021/10/07 09:55:37;;;;;;;2.40;2.20;;;10.50;99.90;;;;;;5124439;28;20181;-83
2021/10/07 09:58:13;;;;;;;2.80;2.50;;;10.50;99.90;;;;;;5124545;28;20198;-83
2021/10/07 10:00:43;;;;;;;2.87;2.20;;;10.50;99.90;;;;;;5125221;28;20179;-83
2021/10/07 10:03:11;;;;;;;3.13;2.60;;;10.50;99.90;;;;;;5125359;28;20645;-83
2021/10/07 10:05:38;;;;;;;2.60;2.27;;;10.40;99.90;;;;;;5124677;28;20659;-82
2021/10/07 10:08:09;;;;;;;3.73;2.40;;;10.50;99.90;;;;;;5124098;28;20297;-83
2021/10/07 10:10:36;;;;;;;3.40;2.60;;;10.60;99.90;;;;;;5123405;28;20191;-83
2021/10/07 10:13:03;;;;;;;2.70;2.50;;;10.60;99.90;;;;;;5123713;28;20180;-83
2021/10/07 10:15:29;;;;;;;5.50;2.80;;;10.70;99.90;;;;;;5124929;28;20167;-83
2021/10/07 10:17:55;;;;;;;4.13;2.87;;;10.70;99.90;;;;;;5122919;28;20246;-83
2021/10/07 10:20:24;;;;;;;4.00;2.10;;;10.80;99.90;;;;;;5122700;28;20232;-82
2021/10/07 10:23:22;;;;;;;3.00;2.20;;;10.80;99.90;;;;;;5123439;28;20180;-83
2021/10/07 10:25:57;;;;;;;2.20;2.00;;;10.90;99.90;;;;;;5119942;28;20190;-82
2021/10/07 10:28:38;;;;;;;5.17;1.73;;;11.00;99.90;;;;;;5126390;28;20195;-82
2021/10/07 10:31:06;;;;;;;2.83;1.67;;;11.20;99.90;;;;;;5120002;28;20204;-83
2021/10/07 10:33:35;;;;;;;2.57;1.80;;;11.40;99.90;;;;;;5122755;28;20263;-83
2021/10/07 10:36:21;;;;;;;2.43;2.13;;;11.80;99.90;;;;;;5128906;28;20191;-83
2021/10/07 10:39:02;;;;;;;2.57;1.83;;;12.20;99.90;;;;;;5130496;28;20195;-83
2021/10/07 10:41:51;;;;;;;3.50;2.27;;;12.90;99.90;;;;;;5123240;28;20176;-83
2021/10/07 10:44:26;;;;;;;2.47;2.00;;;13.40;99.90;;;;;;5122229;28;20226;-83
2021/10/07 10:47:07;;;;;;;1.93;1.73;;;13.50;99.90;;;;;;5123453;28;20171;-83
2021/10/07 10:49:51;;;;;;;3.73;2.07;;;13.40;99.90;;;;;;5121758;28;20200;-83
2021/10/07 10:52:37;;;;;;;1.93;1.73;;;13.30;99.90;;;;;;5122566;28;20217;-84
2021/10/07 10:55:25;;;;;;;2.40;1.90;;;13.10;99.90;;;;;;5122023;28;20171;-83
2021/10/07 10:58:02;;;;;;;5.40;2.27;;;12.90;99.90;;;;;;5121454;28;20290;-83
2021/10/07 11:00:42;;;;;;;2.10;1.90;;;12.50;99.90;;;;;;5121963;28;20199;-83
2021/10/07 11:03:11;;;;;;;3.00;1.90;;;12.50;99.90;;;;;;5121248;28;20199;-83
2021/10/07 11:05:57;;;;;;;3.90;1.83;;;12.70;99.90;;;;;;5120099;28;20179;-83
2021/10/07 11:08:25;;;;;;;2.77;2.00;;;13.20;99.90;;;;;;5121291;28;20292;-83
2021/10/07 11:10:55;;;;;;;2.53;2.00;;;13.80;99.90;;;;;;5120752;28;20264;-83
2021/10/07 11:13:29;;;;;;;3.43;2.20;;;14.20;99.90;;;;;;5122353;28;20191;-83
2021/10/07 11:16:01;;;;;;;1.93;1.80;;;14.40;99.90;;;;;;5120460;28;20269;-83
2021/10/07 11:18:33;;;;;;;1.47;1.37;;;14.50;99.90;;;;;;5120388;28;20196;-83
2021/10/07 11:21:06;;;;;;;1.50;1.40;;;14.20;99.90;;;;;;5119675;28;20673;-84
2021/10/07 11:23:33;;;;;;;2.90;1.60;;;13.90;99.90;;;;;;5119563;28;20244;-83
2021/10/07 11:26:00;;;;;;;3.53;1.60;;;13.90;99.90;;;;;;5119579;28;20202;-83
2021/10/07 11:28:29;;;;;;;1.93;1.47;;;13.80;99.90;;;;;;5120695;28;20218;-83
2021/10/07 11:31:22;;;;;;;3.60;1.33;;;13.50;99.90;;;;;;5118336;28;20724;-83
2021/10/07 11:33:51;;;;;;;1.63;1.43;;;13.10;99.90;;;;;;5118544;28;20178;-83
2021/10/07 11:36:20;;;;;;;1.53;1.30;;;12.50;99.90;;;;;;5118363;28;20542;-83
2021/10/07 11:38:47;;;;;;;1.63;1.40;;;12.00;99.90;;;;;;5117153;28;20203;-83
2021/10/07 11:41:15;;;;;;;2.17;1.50;;;11.70;99.90;;;;;;5116259;28;20190;-83
2021/10/07 11:43:43;;;;;;;2.67;1.67;;;11.40;99.90;;;;;;5115650;28;20332;-83
2021/10/07 11:46:12;;;;;;;3.03;1.87;;;11.20;99.90;;;;;;5116351;28;20629;-82
2021/10/07 11:48:43;;;;;;;5.27;3.27;;;11.10;99.90;;;;;;5114720;28;20282;-82
2021/10/07 11:51:09;;;;;;;3.30;2.33;;;11.10;99.90;;;;;;5120041;28;20168;-83
2021/10/07 11:53:42;;;;;;;4.40;1.80;;;11.10;99.90;;;;;;5122057;28;20203;-82
2021/10/07 11:56:16;;;;;;;3.03;1.87;;;11.10;99.90;;;;;;5123373;28;20185;-83
2021/10/07 11:58:48;;;;;;;4.13;1.73;;;11.20;99.90;;;;;;5124336;28;20190;-83
2021/10/07 12:01:14;;;;;;;1.40;1.17;;;11.40;99.90;;;;;;5121667;28;20216;-83
2021/10/07 12:03:40;;;;;;;1.43;1.03;;;11.60;99.90;;;;;;5124536;28;20215;-83
2021/10/07 12:06:08;;;;;;;1.83;1.10;;;11.90;99.90;;;;;;5123803;28;20176;-84
2021/10/07 12:08:38;;;;;;;5.27;1.60;;;12.10;99.90;;;;;;5124153;28;20192;-82
2021/10/07 12:11:06;;;;;;;1.77;1.27;;;12.20;99.90;;;;;;5123937;28;20186;-83
2021/10/07 12:13:38;;;;;;;2.93;1.90;;;12.20;99.90;;;;;;5122495;28;20186;-83
2021/10/07 12:16:05;;;;;;;1.83;1.00;;;12.20;99.90;;;;;;5122795;28;20647;-83
2021/10/07 12:18:34;;;;;;;2.20;1.10;;;12.20;99.90;;;;;;5122827;28;20203;-83
2021/10/07 12:21:01;;;;;;;1.13;1.00;;;12.30;99.90;;;;;;5122345;28;20186;-84
2021/10/07 12:23:28;;;;;;;2.33;1.07;;;12.30;99.90;;;;;;5124253;28;20211;-83
2021/10/07 12:26:00;;;;;;;1.73;1.13;;;12.30;99.90;;;;;;5122062;28;20637;-83
2021/10/07 12:28:27;;;;;;;2.17;1.17;;;12.20;99.90;;;;;;5122729;28;20195;-84
2021/10/07 12:31:02;;;;;;;3.53;1.00;;;12.20;99.90;;;;;;5122497;28;20186;-83
2021/10/07 12:33:31;;;;;;;2.27;1.17;;;11.90;99.90;;;;;;5123545;28;20171;-83
2021/10/07 12:36:03;;;;;;;1.47;0.90;;;11.70;99.90;;;;;;5122272;28;20179;-83
2021/10/07 12:38:45;;;;;;;1.73;1.13;;;11.70;99.90;;;;;;5123179;28;20203;-83
2021/10/07 12:41:10;;;;;;;1.97;1.10;;;11.70;99.90;;;;;;5126376;28;20175;-83
2021/10/07 12:43:50;;;;;;;1.80;1.00;;;11.70;99.90;;;;;;5128228;28;20206;-83
2021/10/07 12:46:19;;;;;;;2.40;1.00;;;11.70;99.90;;;;;;5130272;28;20205;-85
2021/10/07 12:48:55;;;;;;;1.57;1.10;;;11.70;99.90;;;;;;5129781;28;20199;-84
2021/10/07 12:51:24;;;;;;;2.33;1.30;;;11.60;99.90;;;;;;5130145;28;20176;-83
2021/10/07 12:53:51;;;;;;;2.97;1.40;;;11.50;99.90;;;;;;5127064;28;20178;-84
2021/10/07 12:56:26;;;;;;;1.37;1.20;;;11.60;99.90;;;;;;5126200;28;20236;-83
2021/10/07 12:58:57;;;;;;;1.70;1.00;;;11.80;99.90;;;;;;5126515;28;20635;-83
2021/10/07 13:01:25;;;;;;;1.10;1.00;;;11.80;99.90;;;;;;5127334;28;20235;-83
2021/10/07 13:04:10;;;;;;;1.50;1.23;;;11.90;99.90;;;;;;5127311;28;20238;-83